Dodson, Texas
Current Conditions -  °F | °C
As of 10:53 AM on Wednesday 26 Nov 2014 (Local Time) from KCDS Reporting Station
Clear Clear  
Wind Chill: 53°   Ceiling: Unl
Heat Index: 53°   Visibility: 10mi
Dew Point: 29°   Wind: 15mph
Humidity: 40%   Direction: 350°N
Pressure: 30.27"   Gusts: NA
Location:  34.77°N, 100.02°W
Report Text: KCDS 261653Z AUTO 35013KT 10SM CLR 12/M02 A3027 RMK AO2 SLP249 T01171017
Loading
Personal Weather Stations






























Interactive Weather Map New forecast layout! Learn more

10-Day Weather Forecast

Advertisements
Track Severe Weather on mobile